createdAt,value
2018-09-02T00:00:00.921Z,17.93
2018-09-02T00:02:29.781Z,19.03
2018-09-02T00:04:58.911Z,18.00
2018-09-02T00:07:27.735Z,19.13
2018-09-02T00:09:56.637Z,23.63
2018-09-02T00:12:25.449Z,26.30
2018-09-02T00:14:54.426Z,26.60
2018-09-02T00:17:23.270Z,25.53
2018-09-02T00:19:52.065Z,23.63
2018-09-02T00:22:21.129Z,24.83
2018-09-02T00:24:50.062Z,21.90
2018-09-02T00:27:18.853Z,20.67
2018-09-02T00:29:47.835Z,20.20
2018-09-02T00:32:16.684Z,20.33
2018-09-02T00:34:45.486Z,21.00
2018-09-02T00:37:14.403Z,19.80
2018-09-02T00:39:43.293Z,26.87
2018-09-02T00:42:12.096Z,28.07
2018-09-02T00:44:40.936Z,27.53
2018-09-02T00:47:09.793Z,29.83
2018-09-02T00:49:38.588Z,29.47
2018-09-02T00:52:07.681Z,32.37
2018-09-02T00:54:36.530Z,30.73
2018-09-02T00:57:05.428Z,21.43
2018-09-02T00:59:34.319Z,22.60
2018-09-02T01:02:03.254Z,23.60
2018-09-02T01:04:32.081Z,24.67
2018-09-02T01:07:00.933Z,27.10
2018-09-02T01:09:29.777Z,26.23
2018-09-02T01:11:58.567Z,26.73
2018-09-02T01:14:27.531Z,31.60
2018-09-02T01:16:56.413Z,35.03
2018-09-02T01:19:25.305Z,32.80
2018-09-02T01:21:54.208Z,26.20
2018-09-02T01:24:23.132Z,38.43
2018-09-02T01:26:51.922Z,15.57
2018-09-02T01:29:20.760Z,22.20
2018-09-02T01:31:49.601Z,32.57
2018-09-02T01:34:18.394Z,27.43
2018-09-02T01:36:47.193Z,28.12
2018-09-02T01:39:16.027Z,28.37
2018-09-02T01:41:44.876Z,23.93
2018-09-02T01:44:13.835Z,31.80
2018-09-02T01:46:42.683Z,29.47
2018-09-02T01:49:11.500Z,21.50
2018-09-02T01:51:40.292Z,21.53
2018-09-02T01:54:09.152Z,17.63
2018-09-02T01:56:38.011Z,16.00
2018-09-02T01:59:06.909Z,19.67
2018-09-02T02:01:37.005Z,16.30
2018-09-02T02:04:05.804Z,16.20
2018-09-02T02:06:34.695Z,15.43
2018-09-02T02:09:04.138Z,18.02
2018-09-02T02:11:32.996Z,16.10
2018-09-02T02:14:01.781Z,16.97
2018-09-02T02:16:30.622Z,17.63
2018-09-02T02:19:00.691Z,16.43
2018-09-02T02:21:29.513Z,16.90
2018-09-02T02:23:58.338Z,17.77
2018-09-02T02:26:27.200Z,17.33
2018-09-02T02:28:56.003Z,22.77
2018-09-02T02:31:24.826Z,22.07
2018-09-02T02:33:53.982Z,16.87
2018-09-02T02:36:22.769Z,22.03
2018-09-02T02:38:51.569Z,18.80
2018-09-02T02:41:21.741Z,19.50
2018-09-02T02:43:50.515Z,20.37
2018-09-02T02:46:19.300Z,19.83
2018-09-02T02:48:48.293Z,20.73
2018-09-02T02:51:17.186Z,19.50
2018-09-02T02:53:46.068Z,20.10
2018-09-02T02:56:14.880Z,17.97
2018-09-02T02:58:43.706Z,17.87
2018-09-02T03:01:12.649Z,18.33
2018-09-02T03:03:41.489Z,18.17
2018-09-02T03:06:10.307Z,18.63
2018-09-02T03:08:39.104Z,18.63
2018-09-02T03:11:08.034Z,16.10
2018-09-02T03:13:36.918Z,16.47
2018-09-02T03:16:06.181Z,18.77
2018-09-02T03:18:34.994Z,17.27
2018-09-02T03:21:03.908Z,18.53
2018-09-02T03:23:32.825Z,17.03
2018-09-02T03:26:01.704Z,18.80
2018-09-02T03:28:30.507Z,17.40
2018-09-02T03:30:59.374Z,15.90
2018-09-02T03:33:28.176Z,16.47
2018-09-02T03:35:57.030Z,17.20
2018-09-02T03:38:25.913Z,15.70
2018-09-02T03:40:54.768Z,17.33
2018-09-02T03:43:23.578Z,15.27
2018-09-02T03:45:53.639Z,17.07
2018-09-02T03:48:22.477Z,19.83
2018-09-02T03:50:51.297Z,19.17
2018-09-02T03:53:21.601Z,20.77
2018-09-02T03:55:50.442Z,19.03
2018-09-02T03:58:19.310Z,17.93
2018-09-02T04:00:48.198Z,17.90
2018-09-02T04:03:17.083Z,20.63
2018-09-02T04:05:45.869Z,26.37
2018-09-02T04:08:14.677Z,19.53
2018-09-02T04:10:43.550Z,22.03
2018-09-02T04:13:12.351Z,20.57
2018-09-02T04:15:41.296Z,21.50
2018-09-02T04:18:11.421Z,21.13
2018-09-02T04:20:40.313Z,20.67
2018-09-02T04:23:10.371Z,20.90
2018-09-02T04:25:39.247Z,21.10
2018-09-02T04:28:08.058Z,20.93
2018-09-02T04:30:36.966Z,20.13
2018-09-02T04:33:05.774Z,20.63
2018-09-02T04:35:34.630Z,20.00
2018-09-02T04:38:04.737Z,20.57
2018-09-02T04:40:33.617Z,19.50
2018-09-02T04:43:02.443Z,20.80
2018-09-02T04:45:31.297Z,20.87
2018-09-02T04:48:00.124Z,22.33
2018-09-02T04:50:28.962Z,20.20
2018-09-02T04:52:59.049Z,19.03
2018-09-02T04:55:27.852Z,20.45
2018-09-02T04:57:57.926Z,20.07
2018-09-02T05:00:26.816Z,19.20
2018-09-02T05:02:55.741Z,20.17
2018-09-02T05:05:24.594Z,19.80
2018-09-02T05:07:53.468Z,20.40
2018-09-02T05:10:22.323Z,19.00
2018-09-02T05:12:51.184Z,20.87
2018-09-02T05:15:20.017Z,18.47
2018-09-02T05:17:48.928Z,19.70
2018-09-02T05:20:17.759Z,19.07
2018-09-02T05:22:47.968Z,19.33
2018-09-02T05:25:16.798Z,17.07
2018-09-02T05:27:45.679Z,18.97
2018-09-02T05:30:14.642Z,19.77
2018-09-02T05:32:43.525Z,20.80
2018-09-02T05:35:12.364Z,19.77
2018-09-02T05:37:42.461Z,18.57
2018-09-02T05:40:11.419Z,18.10
2018-09-02T05:42:40.254Z,18.37
2018-09-02T05:45:09.128Z,18.47
2018-09-02T05:47:39.168Z,17.40
2018-09-02T05:50:08.085Z,18.47
2018-09-02T05:52:37.015Z,16.43
2018-09-02T05:55:06.405Z,18.23
2018-09-02T05:57:35.260Z,21.23
2018-09-02T06:00:04.545Z,28.20
2018-09-02T06:02:33.341Z,28.27
2018-09-02T06:05:02.262Z,34.00
2018-09-02T06:07:32.449Z,31.17
2018-09-02T06:10:01.241Z,24.80
2018-09-02T06:12:30.043Z,23.63
2018-09-02T06:15:00.216Z,23.50
2018-09-02T06:17:29.151Z,25.37
2018-09-02T06:19:58.026Z,23.17
2018-09-02T06:22:26.843Z,19.00
2018-09-02T06:24:55.805Z,18.07
2018-09-02T06:27:25.002Z,19.27
2018-09-02T06:29:55.097Z,23.67
2018-09-02T06:32:23.924Z,21.20
2018-09-02T06:34:52.727Z,21.73
2018-09-02T06:37:21.627Z,18.77
2018-09-02T06:39:51.736Z,21.23
2018-09-02T06:42:20.553Z,20.33
2018-09-02T06:44:50.762Z,16.87
2018-09-02T06:47:19.553Z,19.40
2018-09-02T06:49:49.775Z,18.10
2018-09-02T06:52:18.575Z,18.83
2018-09-02T06:54:47.429Z,16.97
2018-09-02T06:57:16.366Z,21.47
2018-09-02T06:59:45.167Z,17.57
2018-09-02T07:02:14.013Z,17.33
2018-09-02T07:04:44.213Z,18.27
2018-09-02T07:07:13.063Z,14.97
2018-09-02T07:09:41.918Z,21.90
2018-09-02T07:12:10.786Z,16.23
2018-09-02T07:14:39.701Z,18.17
2018-09-02T07:17:08.502Z,18.23
2018-09-02T07:19:38.578Z,17.83
2018-09-02T07:22:07.377Z,15.33
2018-09-02T07:24:36.262Z,16.43
2018-09-02T07:27:06.656Z,15.87
2018-09-02T07:29:35.600Z,15.90
2018-09-02T07:32:04.413Z,14.30
2018-09-02T07:34:33.381Z,15.53
2018-09-02T07:37:02.280Z,15.03
2018-09-02T07:39:31.123Z,15.77
2018-09-02T07:42:00.121Z,16.57
2018-09-02T07:44:31.761Z,14.27
2018-09-02T07:47:00.557Z,14.70
2018-09-02T07:49:29.368Z,15.60
2018-09-02T07:51:58.247Z,14.17
2018-09-02T07:54:27.085Z,12.40
2018-09-02T07:56:55.875Z,11.43
2018-09-02T07:59:24.825Z,11.07
2018-09-02T08:01:53.691Z,10.73
2018-09-02T08:04:22.503Z,12.13
2018-09-02T08:06:51.386Z,12.03
2018-09-02T08:09:20.244Z,12.27
2018-09-02T08:11:49.097Z,11.63
2018-09-02T08:14:17.953Z,10.70
2018-09-02T08:16:46.788Z,12.37
2018-09-02T08:19:15.639Z,11.40
2018-09-02T08:21:45.387Z,11.97
2018-09-02T08:24:14.229Z,11.20
2018-09-02T08:26:44.427Z,11.40
2018-09-02T08:29:13.187Z,11.47
2018-09-02T08:31:41.998Z,11.93
2018-09-02T08:34:10.872Z,11.10
2018-09-02T08:36:39.662Z,12.20
2018-09-02T08:39:10.467Z,11.53
2018-09-02T08:41:39.865Z,11.40
2018-09-02T08:44:08.772Z,10.63
2018-09-02T08:46:40.460Z,11.23
2018-09-02T08:49:09.402Z,11.50
2018-09-02T08:51:39.641Z,10.73
2018-09-02T08:54:08.476Z,12.27
2018-09-02T08:56:37.310Z,11.13
2018-09-02T08:59:07.560Z,11.80
2018-09-02T09:01:36.470Z,11.77
2018-09-02T09:04:05.267Z,11.67
2018-09-02T09:06:34.141Z,11.17
2018-09-02T09:09:03.273Z,11.20
2018-09-02T09:11:31.901Z,10.83
2018-09-02T09:14:00.799Z,11.07
2018-09-02T09:16:29.769Z,10.97
2018-09-02T09:18:58.601Z,12.47
2018-09-02T09:21:27.482Z,12.03
2018-09-02T09:23:56.331Z,11.97
2018-09-02T09:26:25.197Z,11.67
2018-09-02T09:28:54.025Z,12.60
2018-09-02T09:31:22.882Z,12.17
2018-09-02T09:33:52.196Z,12.73
2018-09-02T09:36:21.020Z,12.80
2018-09-02T09:38:49.840Z,13.13
2018-09-02T09:41:18.716Z,14.10
2018-09-02T09:43:48.913Z,13.73
2018-09-02T09:46:17.793Z,12.53
2018-09-02T09:48:46.670Z,12.93
2018-09-02T09:51:15.572Z,12.77
2018-09-02T09:53:44.446Z,12.03
2018-09-02T09:56:13.358Z,12.77
2018-09-02T09:58:43.449Z,13.50
2018-09-02T10:01:12.367Z,13.17
2018-09-02T10:03:41.188Z,12.27
2018-09-02T10:06:11.348Z,13.03
2018-09-02T10:08:40.157Z,12.20
2018-09-02T10:11:09.052Z,11.67
2018-09-02T10:13:39.211Z,12.53
2018-09-02T10:16:09.374Z,12.13
2018-09-02T10:18:38.320Z,12.73
2018-09-02T10:21:08.592Z,12.50
2018-09-02T10:23:37.389Z,12.30
2018-09-02T10:26:06.393Z,12.60
2018-09-02T10:28:35.289Z,12.10
2018-09-02T10:31:04.149Z,13.47
2018-09-02T10:33:32.993Z,12.83
2018-09-02T10:36:03.176Z,13.77
2018-09-02T10:38:32.100Z,13.23
2018-09-02T10:41:01.121Z,12.93
2018-09-02T10:43:29.918Z,13.57
2018-09-02T10:45:58.716Z,13.10
2018-09-02T10:48:27.571Z,13.63
2018-09-02T10:50:57.743Z,14.47
2018-09-02T10:53:26.613Z,12.57
2018-09-02T10:55:55.468Z,12.43
2018-09-02T10:58:24.356Z,14.20
2018-09-02T11:00:53.213Z,13.27
2018-09-02T11:03:22.040Z,13.43
2018-09-02T11:05:50.941Z,13.43
2018-09-02T11:08:20.992Z,12.83
2018-09-02T11:10:49.842Z,13.77
2018-09-02T11:13:18.683Z,14.63
2018-09-02T11:15:49.332Z,13.50
2018-09-02T11:18:18.238Z,13.23
2018-09-02T11:20:47.172Z,13.57
2018-09-02T11:23:17.236Z,14.50
2018-09-02T11:25:46.138Z,14.00
2018-09-02T11:28:14.914Z,13.67
2018-09-02T11:30:43.796Z,14.37
2018-09-02T11:33:12.807Z,13.97
2018-09-02T11:35:41.617Z,15.03
2018-09-02T11:38:10.545Z,14.23
2018-09-02T11:40:39.388Z,15.03
2018-09-02T11:43:08.243Z,13.87
2018-09-02T11:45:37.069Z,13.83
2018-09-02T11:48:10.173Z,14.23
2018-09-02T11:50:40.450Z,13.83
2018-09-02T11:53:09.331Z,13.50
2018-09-02T11:55:39.601Z,14.23
2018-09-02T11:58:08.434Z,13.73
2018-09-02T12:00:37.384Z,14.23
2018-09-02T12:03:06.244Z,15.07
2018-09-02T12:05:35.220Z,13.90
2018-09-02T12:08:04.008Z,12.83
2018-09-02T12:10:32.778Z,13.63
2018-09-02T12:13:02.982Z,14.23
2018-09-02T12:15:31.913Z,14.53
2018-09-02T12:18:00.960Z,14.30
2018-09-02T12:20:31.195Z,13.27
2018-09-02T12:23:00.042Z,14.10
2018-09-02T12:25:28.876Z,13.40
2018-09-02T12:27:59.164Z,14.80
2018-09-02T12:30:27.988Z,14.37
2018-09-02T12:32:56.847Z,14.27
2018-09-02T12:35:27.030Z,14.40
2018-09-02T12:37:55.864Z,14.50
2018-09-02T12:40:24.685Z,13.90
2018-09-02T12:42:54.936Z,13.73
2018-09-02T12:45:23.870Z,13.67
2018-09-02T12:47:52.840Z,14.43
2018-09-02T12:50:21.530Z,14.33
2018-09-02T12:52:51.852Z,13.93
2018-09-02T12:55:20.934Z,13.67
2018-09-02T12:57:49.802Z,14.53
2018-09-02T13:00:18.648Z,13.53
2018-09-02T13:02:47.542Z,13.83
2018-09-02T13:05:16.483Z,14.47
2018-09-02T13:07:45.329Z,15.23
2018-09-02T13:10:14.211Z,13.80
2018-09-02T13:12:43.122Z,14.23
2018-09-02T13:15:11.983Z,13.80
2018-09-02T13:17:40.813Z,14.50
2018-09-02T13:20:09.697Z,13.53
2018-09-02T13:22:38.500Z,13.80
2018-09-02T13:25:07.411Z,13.50
2018-09-02T13:27:36.329Z,14.33
2018-09-02T13:30:06.250Z,15.07
2018-09-02T13:32:35.107Z,14.50
2018-09-02T13:35:04.000Z,14.83
2018-09-02T13:37:32.782Z,14.77
2018-09-02T13:40:01.689Z,15.10
2018-09-02T13:42:30.669Z,14.90
2018-09-02T13:44:59.537Z,14.23
2018-09-02T13:47:28.426Z,14.73
2018-09-02T13:49:58.746Z,14.30
2018-09-02T13:52:27.576Z,15.10
2018-09-02T13:54:57.782Z,13.87
2018-09-02T13:57:26.695Z,14.43
2018-09-02T13:59:55.510Z,14.00
2018-09-02T14:02:24.326Z,14.17
2018-09-02T14:04:55.453Z,13.53
2018-09-02T14:07:24.430Z,13.43
2018-09-02T14:09:53.350Z,14.40
2018-09-02T14:12:22.394Z,13.90
2018-09-02T14:14:51.797Z,14.67
2018-09-02T14:17:20.710Z,12.77
2018-09-02T14:19:49.758Z,13.77
2018-09-02T14:22:18.589Z,15.70
2018-09-02T14:24:47.516Z,17.90
2018-09-02T14:27:16.358Z,14.60
2018-09-02T14:29:45.272Z,15.60
2018-09-02T14:32:14.165Z,17.57
2018-09-02T14:34:43.034Z,20.57
2018-09-02T14:37:13.138Z,16.30
2018-09-02T14:39:42.028Z,15.27
2018-09-02T14:42:10.853Z,13.23
2018-09-02T14:44:41.005Z,14.37
2018-09-02T14:47:09.868Z,14.07
2018-09-02T14:49:40.033Z,15.37
2018-09-02T14:52:08.876Z,14.07
2018-09-02T14:54:37.729Z,13.87
2018-09-02T14:57:09.116Z,14.43
2018-09-02T14:59:37.967Z,15.67
2018-09-02T15:02:06.988Z,15.70
2018-09-02T15:04:35.846Z,17.20
2018-09-02T15:07:04.673Z,13.80
2018-09-02T15:09:33.532Z,14.40
2018-09-02T15:12:02.460Z,14.63
2018-09-02T15:14:31.307Z,15.43
2018-09-02T15:17:00.195Z,16.30
2018-09-02T15:19:29.058Z,14.17
2018-09-02T15:21:57.922Z,13.77
2018-09-02T15:24:26.765Z,14.47
2018-09-02T15:26:55.640Z,13.53
2018-09-02T15:29:24.493Z,13.37
2018-09-02T15:31:53.389Z,14.67
2018-09-02T15:34:22.318Z,14.70
2018-09-02T15:36:51.210Z,14.50
2018-09-02T15:39:20.061Z,14.60
2018-09-02T15:41:48.935Z,15.07
2018-09-02T15:44:17.889Z,16.13
2018-09-02T15:46:46.794Z,15.37
2018-09-02T15:49:15.630Z,15.00
2018-09-02T15:51:44.472Z,14.10
2018-09-02T15:54:14.581Z,14.60
2018-09-02T15:56:43.415Z,14.37
2018-09-02T15:59:13.720Z,14.87
2018-09-02T16:01:42.575Z,14.13
2018-09-02T16:04:11.601Z,13.87
2018-09-02T16:06:40.466Z,14.47
2018-09-02T16:09:11.073Z,15.93
2018-09-02T16:11:40.137Z,16.20
2018-09-02T16:14:09.480Z,15.93
2018-09-02T16:16:39.889Z,14.90
2018-09-02T16:19:08.816Z,15.17
2018-09-02T16:21:37.661Z,16.40
2018-09-02T16:24:06.662Z,15.37
2018-09-02T16:26:35.564Z,15.73
2018-09-02T16:29:04.446Z,16.53
2018-09-02T16:31:33.405Z,15.60
2018-09-02T16:34:02.231Z,16.10
2018-09-02T16:36:31.061Z,17.57
2018-09-02T16:39:01.317Z,16.17
2018-09-02T16:41:30.226Z,16.57
2018-09-02T16:43:59.084Z,18.13
2018-09-02T16:46:27.903Z,17.23
2018-09-02T16:48:56.913Z,19.27
2018-09-02T16:51:25.955Z,15.60
2018-09-02T16:54:21.585Z,19.07
2018-09-02T16:56:57.578Z,17.70
2018-09-02T16:59:47.166Z,16.53
2018-09-02T17:02:29.527Z,18.57
2018-09-02T17:05:10.745Z,16.53
2018-09-02T17:07:44.455Z,18.10
2018-09-02T17:13:03.039Z,17.93
2018-09-02T17:15:35.927Z,16.70
2018-09-02T17:18:13.706Z,16.73
2018-09-02T17:20:50.865Z,16.57
2018-09-02T17:23:27.114Z,13.30
2018-09-02T17:25:59.683Z,14.57
2018-09-02T17:28:42.117Z,15.27
2018-09-02T17:31:16.406Z,16.43
2018-09-02T17:33:51.834Z,17.87
2018-09-02T17:36:30.118Z,19.60
2018-09-02T17:39:04.816Z,16.83
2018-09-02T17:41:45.666Z,16.97
2018-09-02T17:44:22.640Z,18.13
2018-09-02T17:46:57.711Z,18.23
2018-09-02T17:52:55.316Z,16.27
2018-09-02T17:55:28.663Z,16.63
2018-09-02T17:58:08.502Z,17.27
2018-09-02T18:00:51.071Z,15.40
2018-09-02T18:03:27.555Z,16.50
2018-09-02T18:06:09.695Z,14.40
2018-09-02T18:08:51.382Z,14.90
2018-09-02T18:11:39.536Z,16.03
2018-09-02T18:14:20.442Z,16.10
2018-09-02T18:16:57.561Z,14.93
2018-09-02T18:19:38.458Z,14.53
2018-09-02T18:22:17.354Z,14.63
2018-09-02T18:24:52.975Z,16.70
2018-09-02T18:27:33.494Z,14.70
2018-09-02T18:33:06.085Z,15.20
2018-09-02T18:35:46.687Z,15.07
2018-09-02T18:38:20.295Z,14.30
2018-09-02T18:40:52.115Z,15.57
2018-09-02T18:43:28.947Z,15.57
2018-09-02T18:46:11.579Z,15.27
2018-09-02T18:48:53.603Z,14.10
2018-09-02T18:51:32.527Z,14.73
2018-09-02T18:56:58.801Z,14.10
2018-09-02T18:59:47.732Z,13.60
2018-09-02T19:02:27.633Z,12.20
2018-09-02T19:05:12.842Z,12.67
2018-09-02T19:07:53.412Z,13.37
2018-09-02T19:10:46.458Z,13.60
2018-09-02T19:13:19.564Z,13.60
2018-09-02T19:18:49.395Z,14.13
2018-09-02T19:24:13.485Z,14.87
2018-09-02T19:26:53.005Z,14.53
2018-09-02T19:29:40.036Z,13.67
2018-09-02T19:32:15.915Z,13.53
2018-09-02T19:34:57.411Z,14.63
2018-09-02T19:37:39.780Z,13.80
2018-09-02T19:40:19.983Z,14.13
2018-09-02T19:43:00.330Z,14.93
2018-09-02T19:45:42.052Z,13.60
2018-09-02T19:48:26.585Z,12.93
2018-09-02T19:51:06.269Z,13.10
2018-09-02T19:53:48.727Z,11.73
2018-09-02T19:56:32.584Z,11.60
2018-09-02T19:59:07.798Z,12.23
2018-09-02T20:07:39.904Z,11.67
2018-09-02T20:10:18.788Z,11.37
2018-09-02T20:13:02.430Z,11.07
2018-09-02T20:18:30.570Z,10.87
2018-09-02T20:21:14.578Z,11.20
2018-09-02T20:24:00.263Z,10.83
2018-09-02T20:26:39.391Z,11.00
2018-09-02T20:32:55.752Z,10.73
2018-09-02T20:35:45.145Z,10.33
2018-09-02T20:38:30.330Z,12.00
2018-09-02T20:41:10.044Z,11.60
2018-09-02T20:43:52.395Z,10.33
2018-09-02T20:46:38.529Z,11.50
2018-09-02T20:49:21.820Z,11.22
2018-09-02T20:52:03.269Z,10.60
2018-09-02T20:54:45.240Z,11.03
2018-09-02T20:57:24.181Z,11.37
2018-09-02T21:00:11.969Z,10.80
2018-09-02T21:02:46.045Z,12.13
2018-09-02T21:05:22.314Z,11.33
2018-09-02T21:08:04.404Z,12.27
2018-09-02T21:10:50.493Z,12.40
2018-09-02T21:13:32.334Z,11.03
2018-09-02T21:16:12.260Z,11.60
2018-09-02T21:18:53.561Z,11.70
2018-09-02T21:21:38.641Z,12.70
2018-09-02T21:24:42.347Z,11.53
2018-09-02T21:27:25.337Z,11.40
2018-09-02T21:30:05.247Z,11.40
2018-09-02T21:32:52.739Z,12.30
2018-09-02T21:35:34.603Z,12.87
2018-09-02T21:38:20.652Z,12.27
2018-09-02T21:41:09.311Z,13.50
2018-09-02T21:47:02.412Z,14.93
2018-09-02T21:50:00.689Z,13.43
2018-09-02T21:52:35.445Z,13.87
2018-09-02T21:55:15.125Z,13.13
2018-09-02T21:58:05.123Z,13.10
2018-09-02T22:00:55.631Z,14.07
2018-09-02T22:03:36.309Z,16.07
2018-09-02T22:06:20.061Z,17.33
2018-09-02T22:08:57.652Z,11.53
2018-09-02T22:11:35.004Z,16.10
2018-09-02T22:14:21.410Z,18.93
2018-09-02T22:17:02.861Z,17.57
2018-09-02T22:19:40.429Z,21.50
2018-09-02T22:22:17.559Z,23.67
2018-09-02T22:25:05.303Z,19.63
2018-09-02T22:30:47.365Z,21.87
2018-09-02T22:33:25.315Z,26.47
2018-09-02T22:36:04.451Z,29.33
2018-09-02T22:38:42.110Z,22.07
2018-09-02T22:41:19.023Z,17.50
2018-09-02T22:44:12.196Z,16.43
2018-09-02T22:47:02.103Z,16.30
2018-09-02T22:49:42.663Z,16.37
2018-09-02T22:52:24.815Z,14.70
2018-09-02T22:55:11.581Z,14.93
2018-09-02T22:57:57.212Z,14.60
2018-09-02T23:00:48.719Z,15.40
2018-09-02T23:03:37.654Z,16.00
2018-09-02T23:06:17.576Z,15.50
2018-09-02T23:08:56.687Z,14.97
2018-09-02T23:11:38.016Z,13.70
2018-09-02T23:14:22.252Z,13.87
2018-09-02T23:17:02.743Z,14.00
2018-09-02T23:19:37.112Z,12.67
2018-09-02T23:22:18.724Z,14.63
2018-09-02T23:25:10.919Z,14.10
2018-09-02T23:31:00.929Z,13.37
2018-09-02T23:34:02.553Z,12.63
2018-09-02T23:36:47.229Z,13.27
2018-09-02T23:39:28.412Z,14.20
2018-09-02T23:44:56.202Z,14.23
2018-09-02T23:47:46.770Z,18.60
2018-09-02T23:50:19.860Z,24.87
2018-09-02T23:53:02.579Z,25.20
2018-09-02T23:55:43.030Z,25.63
2018-09-02T23:58:34.355Z,20.27
